Time;durP1;ratioP1;P1;durP2;ratioP2;P2;SDS_P1;SDS_P2;PMS_P1;PMS_P2;Temp;Humidity;BMP_temperature;BMP_pressure;BME280_temperature;BME280_humidity;BME280_pressure;Samples;Min_cycle;Max_cycle;Signal;HPM_P1;HPM_P2
2021/05/02 00:01:48;;;;;;;8.50;6.60;;;8.90;72.20;;;;;;5073298;28;20120;-74
2021/05/02 00:04:14;;;;;;;9.05;6.57;;;8.90;72.20;;;;;;5073260;28;20068;-74
2021/05/02 00:06:40;;;;;;;9.18;6.70;;;8.90;72.40;;;;;;5071924;28;20075;-73
2021/05/02 00:09:05;;;;;;;7.72;6.18;;;8.80;72.40;;;;;;5071912;28;20027;-73
2021/05/02 00:11:33;;;;;;;9.05;6.78;;;8.80;72.50;;;;;;5071742;28;20365;-73
2021/05/02 00:14:00;;;;;;;9.60;6.50;;;8.80;72.50;;;;;;5071703;28;20510;-73
2021/05/02 00:16:26;;;;;;;7.45;6.10;;;8.80;72.60;;;;;;5071720;28;20055;-73
2021/05/02 00:18:52;;;;;;;8.25;6.72;;;8.80;72.60;;;;;;5071733;28;20028;-73
2021/05/02 00:21:18;;;;;;;8.63;7.20;;;8.80;72.70;;;;;;5071505;28;20167;-73
2021/05/02 00:23:44;;;;;;;7.50;6.03;;;8.70;72.80;;;;;;5071439;28;20127;-73
2021/05/02 00:26:11;;;;;;;10.65;6.25;;;8.60;72.90;;;;;;5072895;28;20052;-74
2021/05/02 00:28:43;;;;;;;9.18;6.25;;;8.60;72.90;;;;;;5072855;28;20407;-73
2021/05/02 00:31:09;;;;;;;7.47;5.72;;;8.60;73.10;;;;;;5072915;28;20463;-73
2021/05/02 00:33:35;;;;;;;7.80;6.00;;;8.50;73.10;;;;;;5072816;28;20035;-72
2021/05/02 00:36:03;;;;;;;8.70;5.90;;;8.50;73.20;;;;;;5073077;28;20590;-73
2021/05/02 00:38:29;;;;;;;9.07;5.40;;;8.50;73.30;;;;;;5072263;28;20037;-73
2021/05/02 00:41:00;;;;;;;6.57;5.10;;;8.50;73.30;;;;;;5071427;28;20442;-73
2021/05/02 00:43:56;;;;;;;8.65;6.60;;;8.50;73.20;;;;;;5072564;28;20063;-73
2021/05/02 00:46:27;;;;;;;8.05;5.78;;;8.50;73.30;;;;;;5071273;28;20077;-73
2021/05/02 00:49:13;;;;;;;9.02;6.25;;;8.50;73.20;;;;;;5071548;28;20126;-72
2021/05/02 00:51:41;;;;;;;8.02;6.32;;;8.50;73.20;;;;;;5071454;28;20032;-73
2021/05/02 00:54:07;;;;;;;8.93;6.00;;;8.50;73.20;;;;;;5072664;28;20395;-73
2021/05/02 00:56:36;;;;;;;10.75;6.43;;;8.50;73.20;;;;;;5071123;28;20119;-73
2021/05/02 00:59:05;;;;;;;9.00;6.07;;;8.50;73.30;;;;;;5072549;28;20387;-73
2021/05/02 01:01:39;;;;;;;7.00;5.47;;;8.50;73.30;;;;;;5071430;28;20025;-73
2021/05/02 01:04:06;;;;;;;6.85;4.97;;;8.50;73.20;;;;;;5070872;28;20055;-73
2021/05/02 01:06:32;;;;;;;10.18;5.65;;;8.60;73.20;;;;;;5070995;28;20028;-73
2021/05/02 01:09:03;;;;;;;7.45;5.30;;;8.60;73.10;;;;;;5070959;28;20020;-74
2021/05/02 01:11:30;;;;;;;10.40;5.55;;;8.60;73.10;;;;;;5072237;28;20527;-74
2021/05/02 01:14:01;;;;;;;9.05;4.80;;;8.60;73.00;;;;;;5072345;28;20414;-74
2021/05/02 01:16:34;;;;;;;6.45;4.70;;;8.60;72.90;;;;;;5070889;28;20036;-73
2021/05/02 01:19:07;;;;;;;7.25;4.90;;;8.60;72.80;;;;;;5072253;28;20475;-74
2021/05/02 01:21:35;;;;;;;;;;;8.60;72.70;;;;;;5072740;28;20051;-74
2021/05/02 01:24:01;;;;;;;8.52;4.78;;;8.60;72.70;;;;;;5072118;28;20008;-73
2021/05/02 01:26:29;;;;;;;7.40;4.85;;;8.60;72.50;;;;;;5072235;28;20043;-73
2021/05/02 01:28:57;;;;;;;6.43;4.20;;;8.60;72.50;;;;;;5074792;28;20426;-74
2021/05/02 01:31:23;;;;;;;7.03;4.25;;;8.60;72.40;;;;;;5074785;28;20025;-73
2021/05/02 01:33:49;;;;;;;6.22;4.50;;;8.60;72.50;;;;;;5076137;28;20033;-73
2021/05/02 01:36:15;;;;;;;9.35;4.80;;;8.60;72.50;;;;;;5076063;28;20455;-72
2021/05/02 01:38:42;;;;;;;11.05;4.60;;;8.60;72.50;;;;;;5076317;28;20113;-72
2021/05/02 01:41:07;;;;;;;8.63;4.80;;;8.60;72.50;;;;;;5074359;28;20027;-73
2021/05/02 01:43:33;;;;;;;7.13;4.70;;;8.60;72.50;;;;;;5075767;28;20036;-73
2021/05/02 01:45:59;;;;;;;7.63;4.88;;;8.60;72.50;;;;;;5075918;28;20027;-73
2021/05/02 01:48:28;;;;;;;5.40;4.45;;;8.60;72.60;;;;;;5075724;28;20051;-72
2021/05/02 01:51:03;;;;;;;7.32;4.60;;;8.60;72.50;;;;;;5075610;28;20100;-73
2021/05/02 01:53:29;;;;;;;8.13;4.78;;;8.60;72.50;;;;;;5074359;28;20063;-74
2021/05/02 01:55:55;;;;;;;6.50;4.65;;;8.50;72.50;;;;;;5074417;28;20036;-73
2021/05/02 01:58:23;;;;;;;6.63;4.82;;;8.50;72.50;;;;;;5074247;28;20043;-74
2021/05/02 02:00:55;;;;;;;5.55;4.15;;;8.50;72.50;;;;;;5074265;28;20024;-74
2021/05/02 02:03:21;;;;;;;6.22;4.03;;;8.50;72.50;;;;;;5075390;28;20470;-74
2021/05/02 02:05:48;;;;;;;4.13;3.53;;;8.50;72.50;;;;;;5074125;28;20017;-74
2021/05/02 02:08:15;;;;;;;5.90;3.58;;;8.50;72.50;;;;;;5075838;28;20029;-73
2021/05/02 02:10:41;;;;;;;5.38;3.40;;;8.40;72.40;;;;;;5074088;28;20227;-73
2021/05/02 02:13:09;;;;;;;6.35;3.80;;;8.30;72.30;;;;;;5073980;28;20044;-74
2021/05/02 02:15:35;;;;;;;4.50;3.38;;;8.30;72.40;;;;;;5075720;28;20025;-73
2021/05/02 02:18:01;;;;;;;4.78;3.38;;;8.20;72.40;;;;;;5073971;28;20040;-73
2021/05/02 02:20:29;;;;;;;5.55;3.13;;;8.20;72.30;;;;;;5075442;28;20502;-74
2021/05/02 02:22:59;;;;;;;5.28;3.17;;;8.10;72.40;;;;;;5075043;28;20046;-73
2021/05/02 02:25:28;;;;;;;4.15;3.25;;;8.00;72.50;;;;;;5075621;28;20111;-74
2021/05/02 02:27:57;;;;;;;6.03;3.03;;;7.90;72.60;;;;;;5073794;28;20024;-74
2021/05/02 02:30:26;;;;;;;5.32;3.20;;;7.80;72.70;;;;;;5073785;28;20383;-73
2021/05/02 02:32:53;;;;;;;5.03;3.38;;;7.80;72.80;;;;;;5075011;28;20028;-73
2021/05/02 02:35:21;;;;;;;5.85;3.05;;;7.80;73.50;;;;;;5075026;28;20112;-74
2021/05/02 02:37:55;;;;;;;6.22;3.20;;;7.70;73.00;;;;;;5073234;28;20036;-74
2021/05/02 02:40:22;;;;;;;4.82;2.85;;;7.60;73.10;;;;;;5072845;28;20032;-74
2021/05/02 02:42:49;;;;;;;6.22;3.60;;;7.60;73.20;;;;;;5074883;28;20446;-73
2021/05/02 02:45:16;;;;;;;5.00;3.30;;;7.60;73.30;;;;;;5073483;28;20024;-74
2021/05/02 02:47:52;;;;;;;7.20;3.50;;;7.60;73.30;;;;;;5073315;28;20028;-74
2021/05/02 02:50:19;;;;;;;5.15;3.53;;;7.60;73.20;;;;;;5074899;28;20033;-74
2021/05/02 02:52:53;;;;;;;4.97;3.28;;;7.60;73.20;;;;;;5074752;28;20420;-73
2021/05/02 02:55:21;;;;;;;6.30;3.78;;;7.60;73.20;;;;;;5073352;28;20039;-74
2021/05/02 02:58:00;;;;;;;5.85;3.72;;;7.70;73.20;;;;;;5073379;28;20395;-74
2021/05/02 03:00:28;;;;;;;6.28;3.80;;;7.70;73.20;;;;;;5073113;28;20392;-73
2021/05/02 03:03:03;;;;;;;6.32;4.00;;;7.70;73.20;;;;;;5073062;28;20025;-75
2021/05/02 03:05:31;;;;;;;7.85;4.03;;;7.70;73.30;;;;;;5074596;28;20037;-74
2021/05/02 03:08:00;;;;;;;7.43;4.20;;;7.70;73.30;;;;;;5074589;28;20498;-74
2021/05/02 03:10:26;;;;;;;6.03;4.18;;;7.80;73.40;;;;;;5072898;28;20024;-74
2021/05/02 03:12:54;;;;;;;10.73;4.60;;;7.80;73.40;;;;;;5072845;28;20040;-74
2021/05/02 03:15:21;;;;;;;7.40;4.03;;;7.80;73.30;;;;;;5074207;28;20040;-74
2021/05/02 03:18:05;;;;;;;6.68;4.32;;;7.80;73.40;;;;;;5072856;28;20059;-75
2021/05/02 03:20:37;;;;;;;7.78;3.67;;;7.80;73.40;;;;;;5072630;28;20028;-74
2021/05/02 03:23:22;;;;;;;4.90;3.63;;;7.80;73.50;;;;;;5072667;28;20024;-73
2021/05/02 03:25:51;;;;;;;7.75;4.40;;;7.80;73.50;;;;;;5072638;28;20016;-74
2021/05/02 03:28:44;;;;;;;6.15;4.28;;;7.90;73.60;;;;;;5072586;28;20020;-72
2021/05/02 03:31:12;;;;;;;4.05;3.50;;;7.90;73.60;;;;;;5073894;28;20434;-73
2021/05/02 03:33:46;;;;;;;5.45;3.47;;;7.80;73.50;;;;;;5072462;28;20123;-73
2021/05/02 03:36:19;;;;;;;6.22;3.88;;;7.90;73.70;;;;;;5072376;28;20029;-73
2021/05/02 03:38:48;;;;;;;4.53;3.60;;;7.90;73.70;;;;;;5072324;28;20089;-73
2021/05/02 03:41:15;;;;;;;6.13;3.35;;;7.80;73.60;;;;;;5072409;28;20062;-74
2021/05/02 03:43:42;;;;;;;6.53;3.80;;;7.90;73.70;;;;;;5072261;28;20033;-74
2021/05/02 03:46:23;;;;;;;4.60;3.40;;;7.80;73.70;;;;;;5072029;28;20023;-74
2021/05/02 03:48:53;;;;;;;6.45;3.63;;;7.80;73.70;;;;;;5071929;28;20031;-74
2021/05/02 03:51:19;;;;;;;5.40;3.45;;;7.80;74.40;;;;;;5071627;28;20016;-74
2021/05/02 03:53:45;;;;;;;5.60;3.15;;;7.70;73.90;;;;;;5071989;28;20029;-74
2021/05/02 03:56:10;;;;;;;6.20;3.22;;;7.70;74.00;;;;;;5071856;28;20563;-74
2021/05/02 03:58:36;;;;;;;8.27;3.40;;;7.60;74.10;;;;;;5073225;28;20341;-74
2021/05/02 04:01:01;;;;;;;6.72;3.10;;;7.60;74.30;;;;;;5073133;28;20064;-73
2021/05/02 04:03:27;;;;;;;6.03;3.78;;;7.50;74.30;;;;;;5072939;28;20364;-74
2021/05/02 04:05:53;;;;;;;8.82;3.83;;;7.40;74.50;;;;;;5071887;28;20115;-74
2021/05/02 04:08:18;;;;;;;6.10;3.67;;;7.40;75.20;;;;;;5072762;28;20030;-75
2021/05/02 04:10:44;;;;;;;6.47;3.60;;;7.40;74.80;;;;;;5072110;28;20077;-74
2021/05/02 04:13:09;;;;;;;6.07;3.22;;;7.30;74.80;;;;;;5071578;28;20460;-74
2021/05/02 04:15:35;;;;;;;9.18;3.42;;;7.30;75.50;;;;;;5072938;28;20116;-74
2021/05/02 04:18:01;;;;;;;7.22;3.97;;;7.30;74.90;;;;;;5071502;28;20036;-74
2021/05/02 04:20:26;;;;;;;4.35;3.08;;;7.30;75.00;;;;;;5072834;28;20036;-74
2021/05/02 04:22:52;;;;;;;5.80;2.85;;;7.20;75.00;;;;;;5072846;28;20103;-75
2021/05/02 04:25:17;;;;;;;5.90;2.70;;;7.20;75.10;;;;;;5071462;28;20511;-74
2021/05/02 04:27:43;;;;;;;5.60;3.45;;;7.20;75.10;;;;;;5072678;28;20109;-74
2021/05/02 04:30:10;;;;;;;5.45;2.75;;;7.20;75.20;;;;;;5071342;28;20087;-74
2021/05/02 04:32:35;;;;;;;5.45;3.10;;;7.10;75.10;;;;;;5072583;28;20029;-74
2021/05/02 04:35:01;;;;;;;6.40;2.85;;;7.20;75.10;;;;;;5071493;28;20107;-74
2021/05/02 04:37:27;;;;;;;6.32;2.80;;;7.10;75.10;;;;;;5071667;28;20023;-75
2021/05/02 04:39:53;;;;;;;5.22;2.78;;;7.20;75.10;;;;;;5071409;28;20115;-74
2021/05/02 04:42:18;;;;;;;6.20;3.08;;;7.20;75.10;;;;;;5071436;28;20046;-75
2021/05/02 04:44:47;;;;;;;4.60;2.67;;;7.20;75.10;;;;;;5071101;28;20020;-74
2021/05/02 04:47:18;;;;;;;5.13;2.72;;;7.20;75.10;;;;;;5072960;28;20078;-74
2021/05/02 04:49:47;;;;;;;5.13;3.20;;;7.10;75.20;;;;;;5071196;28;20112;-74
2021/05/02 04:52:14;;;;;;;6.78;3.25;;;7.10;75.30;;;;;;5071096;28;20066;-74
2021/05/02 04:54:40;;;;;;;6.93;3.00;;;7.00;75.30;;;;;;5072283;28;20020;-74
2021/05/02 04:57:06;;;;;;;4.20;2.85;;;7.00;75.30;;;;;;5071102;28;20029;-74
2021/05/02 04:59:32;;;;;;;4.95;2.88;;;7.00;75.40;;;;;;5071499;28;20438;-74
2021/05/02 05:01:58;;;;;;;6.00;2.78;;;6.90;75.50;;;;;;5070473;28;20024;-74
2021/05/02 05:04:24;;;;;;;5.75;2.67;;;6.90;75.50;;;;;;5070968;28;20031;-75
2021/05/02 05:06:49;;;;;;;5.07;2.60;;;6.90;75.50;;;;;;5072557;28;20040;-74
2021/05/02 05:09:15;;;;;;;8.07;2.95;;;7.00;75.50;;;;;;5070802;28;20013;-75
2021/05/02 05:11:40;;;;;;;4.38;2.80;;;7.00;75.50;;;;;;5072632;28;20107;-74
2021/05/02 05:14:06;;;;;;;6.57;2.80;;;7.00;75.40;;;;;;5070802;28;20072;-74
2021/05/02 05:16:32;;;;;;;5.82;2.95;;;7.00;75.40;;;;;;5070929;28;20031;-75
2021/05/02 05:18:57;;;;;;;5.25;2.78;;;7.00;75.40;;;;;;5070840;28;20033;-75
2021/05/02 05:21:23;;;;;;;5.18;2.78;;;7.00;75.40;;;;;;5072190;28;20024;-74
2021/05/02 05:23:49;;;;;;;9.32;2.88;;;7.00;75.30;;;;;;5071873;28;20064;-74
2021/05/02 05:26:14;;;;;;;6.55;3.25;;;7.00;75.30;;;;;;5072513;28;20016;-74
2021/05/02 05:28:40;;;;;;;6.20;3.00;;;7.00;75.30;;;;;;5072174;28;20035;-74
2021/05/02 05:31:05;;;;;;;6.70;2.83;;;7.00;75.40;;;;;;5072022;28;20025;-74
2021/05/02 05:33:31;;;;;;;5.60;3.50;;;7.00;75.50;;;;;;5070655;28;20491;-74
2021/05/02 05:35:58;;;;;;;4.82;2.30;;;6.90;75.50;;;;;;5070684;28;20115;-74
2021/05/02 05:38:24;;;;;;;4.50;2.75;;;7.00;75.60;;;;;;5070695;28;20025;-73
2021/05/02 05:40:50;;;;;;;3.30;2.35;;;7.00;75.60;;;;;;5070592;28;20021;-73
2021/05/02 05:43:15;;;;;;;5.50;2.55;;;7.00;75.60;;;;;;5070540;28;20383;-73
2021/05/02 05:45:41;;;;;;;6.63;2.50;;;7.10;75.60;;;;;;5070666;28;20025;-73
2021/05/02 05:48:07;;;;;;;4.43;2.40;;;7.10;75.60;;;;;;5070569;28;20021;-73
2021/05/02 05:50:33;;;;;;;5.40;2.55;;;7.20;75.60;;;;;;5070699;28;20457;-73
2021/05/02 05:52:58;;;;;;;5.80;2.85;;;7.20;75.50;;;;;;5071846;28;20031;-74
2021/05/02 05:55:25;;;;;;;5.00;2.63;;;7.20;75.40;;;;;;5070464;28;20527;-73
2021/05/02 05:57:52;;;;;;;6.28;2.42;;;7.30;75.50;;;;;;5070360;28;20029;-73
2021/05/02 06:00:19;;;;;;;3.80;2.42;;;7.30;75.40;;;;;;5070791;28;20074;-73
2021/05/02 06:02:45;;;;;;;6.25;2.72;;;7.30;75.50;;;;;;5070270;28;20387;-73
2021/05/02 06:05:11;;;;;;;5.45;2.60;;;7.30;75.60;;;;;;5070281;28;20025;-73
2021/05/02 06:07:37;;;;;;;4.95;2.50;;;7.40;75.60;;;;;;5071502;28;20099;-73
2021/05/02 06:10:04;;;;;;;4.25;2.30;;;7.40;75.60;;;;;;5070328;28;20445;-74
2021/05/02 06:12:30;;;;;;;5.88;2.78;;;7.50;75.60;;;;;;5071702;28;20021;-74
2021/05/02 06:14:55;;;;;;;4.68;2.50;;;7.50;75.50;;;;;;5073815;28;20464;-74
2021/05/02 06:17:21;;;;;;;6.63;2.30;;;7.50;75.50;;;;;;5073885;28;20081;-74
2021/05/02 06:19:47;;;;;;;5.70;2.17;;;7.50;75.30;;;;;;5073920;28;20085;-74
2021/05/02 06:22:12;;;;;;;4.80;2.10;;;7.60;75.30;;;;;;5075212;28;20028;-74
2021/05/02 06:24:38;;;;;;;6.45;2.22;;;7.70;75.20;;;;;;5075025;28;20036;-74
2021/05/02 06:27:04;;;;;;;4.97;2.05;;;7.80;75.10;;;;;;5075241;28;20024;-74
2021/05/02 06:29:30;;;;;;;5.28;2.10;;;7.80;74.90;;;;;;5075060;28;20039;-74
2021/05/02 06:31:55;;;;;;;5.35;2.17;;;7.80;74.80;;;;;;5074046;28;20150;-74
2021/05/02 06:34:21;;;;;;;5.93;2.67;;;7.90;74.60;;;;;;5075058;28;20075;-74
2021/05/02 06:36:47;;;;;;;4.10;1.80;;;7.90;74.40;;;;;;5075000;28;20392;-74
2021/05/02 06:39:15;;;;;;;3.72;2.05;;;8.00;74.30;;;;;;5073564;28;20038;-74
2021/05/02 06:41:45;;;;;;;3.78;1.73;;;8.10;74.10;;;;;;5074860;28;20086;-74
2021/05/02 06:44:11;;;;;;;3.13;2.00;;;8.10;73.90;;;;;;5074943;28;20031;-75
2021/05/02 06:46:38;;;;;;;3.95;1.90;;;8.20;73.70;;;;;;5074833;28;20500;-75
2021/05/02 06:49:06;;;;;;;4.65;1.85;;;8.20;73.30;;;;;;5074814;28;20044;-74
2021/05/02 06:51:32;;;;;;;6.57;1.70;;;8.30;73.20;;;;;;5073347;28;20049;-75
2021/05/02 06:53:58;;;;;;;3.35;1.63;;;8.30;72.80;;;;;;5073399;28;20090;-75
2021/05/02 06:56:25;;;;;;;8.30;1.90;;;8.40;72.50;;;;;;5073221;28;20034;-73
2021/05/02 06:58:51;;;;;;;7.03;2.00;;;8.50;72.10;;;;;;5073184;28;20028;-73
2021/05/02 07:01:18;;;;;;;3.63;1.80;;;8.40;71.50;;;;;;5074692;28;20033;-73
2021/05/02 07:03:43;;;;;;;4.70;1.70;;;8.60;71.50;;;;;;5074590;28;20040;-72
2021/05/02 07:06:09;;;;;;;6.75;2.13;;;8.60;71.20;;;;;;5073039;28;20020;-72
2021/05/02 07:08:35;;;;;;;7.55;1.90;;;8.70;70.90;;;;;;5074116;28;20025;-73
2021/05/02 07:11:01;;;;;;;4.53;1.75;;;8.80;70.10;;;;;;5074541;28;20029;-74
2021/05/02 07:13:28;;;;;;;3.20;1.80;;;8.80;70.00;;;;;;5074115;28;20127;-73
2021/05/02 07:15:55;;;;;;;5.05;1.77;;;8.90;69.40;;;;;;5072871;28;20024;-73
2021/05/02 07:18:21;;;;;;;3.50;1.70;;;9.00;69.10;;;;;;5072660;28;20035;-73
2021/05/02 07:20:49;;;;;;;3.67;1.50;;;9.10;68.60;;;;;;5074033;28;20028;-73
2021/05/02 07:23:15;;;;;;;2.88;1.55;;;9.10;67.90;;;;;;5072881;28;20028;-73
2021/05/02 07:25:41;;;;;;;2.28;1.38;;;9.10;67.80;;;;;;5072290;28;20071;-74
2021/05/02 07:28:07;;;;;;;3.90;1.30;;;9.20;67.10;;;;;;5072758;28;20419;-73
2021/05/02 07:30:32;;;;;;;2.75;1.40;;;9.20;66.80;;;;;;5072368;28;20028;-74
2021/05/02 07:32:58;;;;;;;4.20;1.35;;;9.30;66.60;;;;;;5072375;28;20020;-74
2021/05/02 07:35:24;;;;;;;3.42;1.48;;;9.30;66.60;;;;;;5072459;28;20033;-73
2021/05/02 07:37:49;;;;;;;1.77;1.30;;;9.40;66.60;;;;;;5074370;28;20133;-74
2021/05/02 07:40:15;;;;;;;3.22;1.30;;;9.50;65.40;;;;;;5073902;28;20028;-72
2021/05/02 07:42:41;;;;;;;2.15;1.40;;;9.60;65.00;;;;;;5073821;28;20052;-73
2021/05/02 07:45:07;;;;;;;3.13;1.42;;;9.70;64.00;;;;;;5073431;28;20036;-73
2021/05/02 07:47:35;;;;;;;1.60;1.25;;;9.70;63.90;;;;;;5073739;28;20436;-73
2021/05/02 07:50:01;;;;;;;3.45;1.65;;;9.70;63.00;;;;;;5072158;28;20096;-73
2021/05/02 07:52:27;;;;;;;6.32;1.55;;;9.70;62.70;;;;;;5072135;28;20047;-73
2021/05/02 07:54:53;;;;;;;3.28;1.20;;;9.60;62.20;;;;;;5071973;28;20020;-73
2021/05/02 07:57:18;;;;;;;2.80;1.10;;;9.60;63.00;;;;;;5071883;28;20027;-73
2021/05/02 07:59:44;;;;;;;4.15;1.25;;;9.60;63.30;;;;;;5073512;28;20036;-74
2021/05/02 08:02:10;;;;;;;2.10;1.20;;;9.80;63.10;;;;;;5071850;28;20020;-73
2021/05/02 08:04:38;;;;;;;2.05;1.23;;;9.90;62.20;;;;;;5071879;28;20029;-72
2021/05/02 08:07:05;;;;;;;1.75;1.05;;;10.00;61.80;;;;;;5073340;28;20219;-73
2021/05/02 08:09:31;;;;;;;4.65;1.60;;;10.00;60.30;;;;;;5073183;28;20074;-73
2021/05/02 08:11:57;;;;;;;1.65;1.27;;;9.90;61.10;;;;;;5071833;28;20123;-73
2021/05/02 08:14:22;;;;;;;3.60;1.10;;;9.90;60.60;;;;;;5071474;28;20041;-73
2021/05/02 08:16:51;;;;;;;2.42;1.00;;;10.00;60.40;;;;;;5072013;28;20392;-73
2021/05/02 08:19:16;;;;;;;3.90;1.13;;;10.00;60.50;;;;;;5072166;28;20065;-74
2021/05/02 08:21:42;;;;;;;0.98;0.90;;;10.20;60.30;;;;;;5073347;28;20020;-73
2021/05/02 08:24:08;;;;;;;2.78;1.10;;;10.40;59.60;;;;;;5071719;28;20056;-74
2021/05/02 08:26:34;;;;;;;4.55;1.02;;;10.40;59.10;;;;;;5071622;28;20032;-73
2021/05/02 08:28:59;;;;;;;1.52;0.90;;;10.50;58.30;;;;;;5071614;28;20120;-74
2021/05/02 08:31:27;;;;;;;3.55;1.38;;;10.50;58.60;;;;;;5071463;28;20127;-73
2021/05/02 08:33:55;;;;;;;1.75;1.27;;;10.40;58.20;;;;;;5072775;28;20058;-73
2021/05/02 08:36:21;;;;;;;3.30;1.00;;;10.40;58.50;;;;;;5072340;28;20029;-73
2021/05/02 08:38:47;;;;;;;2.60;1.70;;;10.30;58.40;;;;;;5073123;28;20090;-73
2021/05/02 08:41:13;;;;;;;4.05;1.38;;;10.30;58.10;;;;;;5071490;28;20039;-73
2021/05/02 08:43:39;;;;;;;3.95;1.20;;;10.30;58.30;;;;;;5072596;28;20036;-74
2021/05/02 08:46:04;;;;;;;3.00;0.88;;;10.30;57.50;;;;;;5073076;28;20039;-74
2021/05/02 08:48:30;;;;;;;1.85;1.10;;;10.30;56.80;;;;;;5072505;28;20035;-73
2021/05/02 08:50:57;;;;;;;3.55;0.90;;;10.30;57.50;;;;;;5072725;28;20081;-73
2021/05/02 08:53:25;;;;;;;2.83;1.05;;;10.40;57.30;;;;;;5071252;28;20021;-74
2021/05/02 08:55:54;;;;;;;2.22;0.95;;;10.40;57.00;;;;;;5072830;28;20063;-73
2021/05/02 08:58:22;;;;;;;2.90;0.90;;;10.50;56.40;;;;;;5071152;28;20453;-73
2021/05/02 09:00:48;;;;;;;4.13;1.00;;;10.60;55.30;;;;;;5072652;28;20118;-74
2021/05/02 09:06:23;;;;;;;4.45;1.00;;;10.70;56.20;;;;;;5072839;28;20036;-74
2021/05/02 09:08:51;;;;;;;1.80;0.88;;;10.70;55.80;;;;;;5072653;28;20020;-74
2021/05/02 09:11:31;;;;;;;2.22;1.10;;;10.60;56.20;;;;;;5072491;28;20499;-74
2021/05/02 09:13:58;;;;;;;1.45;0.95;;;10.60;56.00;;;;;;5072364;28;20048;-74
2021/05/02 09:16:24;;;;;;;1.10;0.65;;;10.60;55.70;;;;;;5072493;28;20476;-73
2021/05/02 09:18:59;;;;;;;2.67;0.90;;;10.70;54.80;;;;;;5071514;28;20025;-75
2021/05/02 09:21:24;;;;;;;2.17;0.90;;;10.80;54.20;;;;;;5072386;28;20055;-74
2021/05/02 09:23:50;;;;;;;1.00;0.80;;;10.90;53.90;;;;;;5072250;28;20045;-74
2021/05/02 09:26:27;;;;;;;2.15;1.00;;;11.00;54.00;;;;;;5072538;28;20377;-74
2021/05/02 09:28:57;;;;;;;1.35;0.90;;;11.20;54.40;;;;;;5071096;28;20120;-73
2021/05/02 09:31:24;;;;;;;2.42;1.15;;;11.30;54.20;;;;;;5071476;28;20099;-73
2021/05/02 09:33:51;;;;;;;2.70;0.90;;;11.40;54.20;;;;;;5071053;28;20076;-73
2021/05/02 09:36:18;;;;;;;1.73;0.85;;;11.50;53.30;;;;;;5071045;28;20033;-73
2021/05/02 09:38:45;;;;;;;1.13;0.75;;;11.60;53.30;;;;;;5071027;28;20032;-73
2021/05/02 09:41:12;;;;;;;2.65;1.00;;;11.60;52.90;;;;;;5072264;28;20033;-73
2021/05/02 09:43:45;;;;;;;1.63;0.80;;;11.70;53.50;;;;;;5070918;28;20033;-73
2021/05/02 09:46:25;;;;;;;3.25;1.00;;;11.70;52.80;;;;;;5071014;28;20487;-73
2021/05/02 09:48:58;;;;;;;1.73;0.60;;;11.70;51.90;;;;;;5074906;28;20028;-72
2021/05/02 09:51:25;;;;;;;3.27;0.67;;;11.80;52.50;;;;;;5074957;28;20426;-73
2021/05/02 09:54:09;;;;;;;1.33;0.80;;;11.80;51.80;;;;;;5074936;28;20035;-74
2021/05/02 09:56:50;;;;;;;1.70;1.00;;;11.90;52.20;;;;;;5075059;28;20033;-73
2021/05/02 09:59:23;;;;;;;1.40;1.00;;;11.90;52.30;;;;;;5074795;28;20047;-73
2021/05/02 10:02:10;;;;;;;1.55;0.80;;;11.80;52.00;;;;;;5074908;28;20082;-75
2021/05/02 10:04:44;;;;;;;1.23;0.63;;;11.70;52.70;;;;;;5074487;28;20040;-72
2021/05/02 10:07:16;;;;;;;2.25;0.88;;;11.60;53.20;;;;;;5075651;28;20032;-72
2021/05/02 10:09:42;;;;;;;2.45;0.73;;;11.60;53.10;;;;;;5075887;28;20480;-73
2021/05/02 10:12:10;;;;;;;1.90;0.90;;;11.40;53.00;;;;;;5075861;28;20032;-74
2021/05/02 10:14:41;;;;;;;0.82;0.60;;;11.30;53.40;;;;;;5074449;28;20109;-73
2021/05/02 10:17:07;;;;;;;1.25;0.70;;;11.20;53.40;;;;;;5075788;28;20056;-73
2021/05/02 10:19:33;;;;;;;2.33;0.63;;;11.20;53.90;;;;;;5074304;28;20029;-73
2021/05/02 10:22:00;;;;;;;2.92;0.82;;;11.10;53.90;;;;;;5074492;28;20039;-73
2021/05/02 10:24:26;;;;;;;0.68;0.57;;;11.20;54.20;;;;;;5075670;28;20369;-73
2021/05/02 10:26:53;;;;;;;3.58;0.70;;;11.20;54.30;;;;;;5074609;28;20017;-74
2021/05/02 10:29:32;;;;;;;1.13;0.45;;;11.30;54.30;;;;;;5074458;28;20025;-72
2021/05/02 10:32:13;;;;;;;1.60;0.70;;;11.40;54.10;;;;;;5074676;28;20028;-73
2021/05/02 10:34:50;;;;;;;2.85;0.82;;;11.50;53.90;;;;;;5074099;28;20032;-74
2021/05/02 10:37:25;;;;;;;2.65;0.70;;;11.60;52.80;;;;;;5074247;28;20063;-74
2021/05/02 10:39:58;;;;;;;0.60;0.50;;;11.70;53.00;;;;;;5074202;28;20071;-74
2021/05/02 10:42:50;;;;;;;2.05;0.70;;;11.80;53.00;;;;;;5074091;28;20488;-75
2021/05/02 10:45:28;;;;;;;2.42;0.80;;;11.90;52.80;;;;;;5075204;28;20032;-75
2021/05/02 10:47:55;;;;;;;0.50;0.50;;;12.00;52.80;;;;;;5075241;28;20032;-74
2021/05/02 10:54:03;;;;;;;0.80;0.60;;;12.10;50.90;;;;;;5075990;28;20127;-74
2021/05/02 10:56:50;;;;;;;0.60;0.55;;;12.00;51.40;;;;;;5073689;28;20036;-74
2021/05/02 10:59:16;;;;;;;2.17;0.60;;;12.00;51.80;;;;;;5074035;28;20099;-73
2021/05/02 11:01:43;;;;;;;1.95;0.60;;;12.10;50.70;;;;;;5074906;28;20024;-74
2021/05/02 11:04:09;;;;;;;1.35;0.50;;;12.00;50.70;;;;;;5073832;28;20144;-73
2021/05/02 11:06:38;;;;;;;0.32;0.32;;;12.00;50.30;;;;;;5073729;28;20052;-74
2021/05/02 11:09:05;;;;;;;1.35;0.77;;;12.00;50.30;;;;;;5073182;28;20024;-73
2021/05/02 11:11:35;;;;;;;1.00;0.68;;;12.10;49.50;;;;;;5074773;28;20415;-73
2021/05/02 11:14:07;;;;;;;1.02;0.60;;;12.20;49.20;;;;;;5072906;28;20044;-73
2021/05/02 11:16:39;;;;;;;2.22;0.63;;;12.30;49.00;;;;;;5074656;28;20032;-74
2021/05/02 11:19:12;;;;;;;4.00;1.70;;;12.40;48.10;;;;;;5073190;28;20035;-73
2021/05/02 11:21:51;;;;;;;;;;;12.50;48.10;;;;;;5073393;28;20024;-74
2021/05/02 11:24:18;;;;;;;1.35;1.00;;;12.60;48.50;;;;;;5074242;28;20011;-74
2021/05/02 11:30:11;;;;;;;2.00;0.77;;;12.70;48.70;;;;;;5074606;28;20120;-74
2021/05/02 11:32:40;;;;;;;1.45;0.65;;;12.60;48.90;;;;;;5074485;28;20028;-73
2021/05/02 11:35:07;;;;;;;1.63;0.70;;;12.70;49.50;;;;;;5072839;28;20119;-74
2021/05/02 11:37:47;;;;;;;0.85;0.60;;;12.80;49.50;;;;;;5074363;28;20044;-74
2021/05/02 11:40:28;;;;;;;1.58;0.70;;;12.90;49.60;;;;;;5072873;28;20373;-75
2021/05/02 11:43:02;;;;;;;1.20;0.80;;;13.00;49.70;;;;;;5074080;28;20105;-74
2021/05/02 11:45:47;;;;;;;1.40;0.60;;;13.20;49.80;;;;;;5073914;28;20032;-73
2021/05/02 11:48:19;;;;;;;1.98;0.88;;;13.20;49.30;;;;;;5073633;28;20384;-74
2021/05/02 11:50:46;;;;;;;0.60;0.60;;;13.20;48.90;;;;;;5072524;28;20020;-74
2021/05/02 11:53:12;;;;;;;1.45;1.00;;;13.20;48.80;;;;;;5072494;28;20020;-74
2021/05/02 11:55:42;;;;;;;1.10;0.70;;;13.00;48.40;;;;;;5072234;28;20089;-76
2021/05/02 11:58:14;;;;;;;2.05;0.60;;;12.90;48.40;;;;;;5072960;28;20077;-74
2021/05/02 12:00:48;;;;;;;1.58;0.63;;;12.70;48.70;;;;;;5072570;28;20033;-76
2021/05/02 12:03:31;;;;;;;1.25;0.80;;;12.70;49.10;;;;;;5073775;28;20496;-76
2021/05/02 12:05:57;;;;;;;1.08;0.70;;;12.60;49.20;;;;;;5072136;28;20123;-73
2021/05/02 12:08:25;;;;;;;1.42;0.80;;;12.60;49.40;;;;;;5073486;28;20456;-69
2021/05/02 12:11:04;;;;;;;0.80;0.70;;;12.50;49.30;;;;;;5073499;28;20024;-72
2021/05/02 12:13:45;;;;;;;0.77;0.75;;;12.50;49.60;;;;;;5071865;28;20395;-73
2021/05/02 12:16:13;;;;;;;0.68;0.68;;;12.50;49.50;;;;;;5072058;28;20175;-72
2021/05/02 12:18:54;;;;;;;0.95;0.63;;;12.60;49.40;;;;;;5071986;28;20473;-71
2021/05/02 12:21:29;;;;;;;0.90;0.60;;;12.70;49.50;;;;;;5072158;28;20075;-70
2021/05/02 12:24:16;;;;;;;0.60;0.50;;;12.90;49.60;;;;;;5073165;28;20072;-72
2021/05/02 12:26:43;;;;;;;1.73;0.60;;;13.10;49.30;;;;;;5072109;28;20431;-71
2021/05/02 12:29:12;;;;;;;1.35;0.65;;;13.20;48.90;;;;;;5072093;28;20025;-71
2021/05/02 12:31:38;;;;;;;0.52;0.52;;;13.30;48.30;;;;;;5073278;28;20059;-71
2021/05/02 12:34:09;;;;;;;0.55;0.50;;;13.30;48.50;;;;;;5071885;28;20028;-70
2021/05/02 12:36:35;;;;;;;1.10;0.70;;;13.50;48.40;;;;;;5072225;28;20388;-71
2021/05/02 12:39:05;;;;;;;0.90;0.65;;;13.70;48.20;;;;;;5072427;28;20495;-73
2021/05/02 12:41:33;;;;;;;4.75;0.93;;;13.90;47.30;;;;;;5073319;28;20042;-73
2021/05/02 12:44:32;;;;;;;2.15;0.80;;;14.00;47.20;;;;;;5071973;28;20047;-73
2021/05/02 12:47:00;;;;;;;0.90;0.70;;;14.10;47.00;;;;;;5071616;28;20036;-72
2021/05/02 12:49:31;;;;;;;2.58;0.90;;;14.10;46.90;;;;;;5071865;28;20388;-72
2021/05/02 12:52:04;;;;;;;1.17;0.82;;;14.00;46.80;;;;;;5073063;28;20039;-73
2021/05/02 12:54:34;;;;;;;1.20;0.68;;;13.70;46.90;;;;;;5073065;28;20032;-73
2021/05/02 12:57:13;;;;;;;2.33;0.80;;;13.30;47.10;;;;;;5071681;28;20032;-73
2021/05/02 12:59:49;;;;;;;1.25;0.50;;;13.00;47.60;;;;;;5073010;28;20047;-73
2021/05/02 13:02:33;;;;;;;1.02;0.60;;;12.80;48.00;;;;;;5071818;28;20039;-74
2021/05/02 13:05:23;;;;;;;0.90;0.60;;;12.80;48.40;;;;;;5073280;28;20532;-73
2021/05/02 13:07:51;;;;;;;1.50;0.55;;;12.80;48.50;;;;;;5072834;28;20020;-73
2021/05/02 13:10:22;;;;;;;1.30;0.60;;;13.00;48.60;;;;;;5072891;28;20028;-73
2021/05/02 13:12:56;;;;;;;1.88;1.13;;;13.20;48.50;;;;;;5072813;28;20039;-70